sensor_id;sensor_type;location;lat;lon;timestamp;temperature;humidity
19536;HTU21D;9913;51.168;4.124;2023-02-08T00:01:16;-1.53;74.96
19536;HTU21D;9913;51.168;4.124;2023-02-08T00:03:44;-1.44;74.96
19536;HTU21D;9913;51.168;4.124;2023-02-08T00:06:13;-1.40;74.96
19536;HTU21D;9913;51.168;4.124;2023-02-08T00:08:43;-1.41;74.81
19536;HTU21D;9913;51.168;4.124;2023-02-08T00:11:12;-1.38;74.64
19536;HTU21D;9913;51.168;4.124;2023-02-08T00:13:41;-1.44;74.52
19536;HTU21D;9913;51.168;4.124;2023-02-08T00:16:12;-1.55;74.50
19536;HTU21D;9913;51.168;4.124;2023-02-08T00:18:40;-1.70;74.45
19536;HTU21D;9913;51.168;4.124;2023-02-08T00:21:09;-1.89;74.68
19536;HTU21D;9913;51.168;4.124;2023-02-08T00:23:38;-2.06;74.64
19536;HTU21D;9913;51.168;4.124;2023-02-08T00:26:06;-2.12;74.75
19536;HTU21D;9913;51.168;4.124;2023-02-08T00:28:35;-2.16;75.00
19536;HTU21D;9913;51.168;4.124;2023-02-08T00:31:05;-2.12;74.86
19536;HTU21D;9913;51.168;4.124;2023-02-08T00:33:34;-2.12;74.82
19536;HTU21D;9913;51.168;4.124;2023-02-08T00:36:04;-2.09;74.98
19536;HTU21D;9913;51.168;4.124;2023-02-08T00:38:33;-2.07;74.96
19536;HTU21D;9913;51.168;4.124;2023-02-08T00:41:02;-2.08;75.04
19536;HTU21D;9913;51.168;4.124;2023-02-08T00:43:30;-2.05;75.04
19536;HTU21D;9913;51.168;4.124;2023-02-08T00:45:59;-2.06;75.05
19536;HTU21D;9913;51.168;4.124;2023-02-08T00:48:29;-2.07;75.01
19536;HTU21D;9913;51.168;4.124;2023-02-08T00:50:59;-2.09;75.07
19536;HTU21D;9913;51.168;4.124;2023-02-08T00:53:28;-2.13;74.92
19536;HTU21D;9913;51.168;4.124;2023-02-08T00:55:56;-2.22;74.96
19536;HTU21D;9913;51.168;4.124;2023-02-08T00:58:25;-2.28;75.02
19536;HTU21D;9913;51.168;4.124;2023-02-08T01:00:54;-2.33;74.82
19536;HTU21D;9913;51.168;4.124;2023-02-08T01:03:23;-2.35;74.92
19536;HTU21D;9913;51.168;4.124;2023-02-08T01:05:53;-2.28;74.95
19536;HTU21D;9913;51.168;4.124;2023-02-08T01:08:22;-2.28;74.89
19536;HTU21D;9913;51.168;4.124;2023-02-08T01:10:50;-2.31;74.79
19536;HTU21D;9913;51.168;4.124;2023-02-08T01:13:21;-2.27;75.02
19536;HTU21D;9913;51.168;4.124;2023-02-08T01:15:49;-2.27;75.02
19536;HTU21D;9913;51.168;4.124;2023-02-08T01:18:17;-2.27;74.86
19536;HTU21D;9913;51.168;4.124;2023-02-08T01:20:45;-2.26;74.95
19536;HTU21D;9913;51.168;4.124;2023-02-08T01:23:15;-2.19;75.12
19536;HTU21D;9913;51.168;4.124;2023-02-08T01:25:43;-2.15;75.33
19536;HTU21D;9913;51.168;4.124;2023-02-08T01:28:11;-2.10;75.33
19536;HTU21D;9913;51.168;4.124;2023-02-08T01:30:40;-2.09;75.47
19536;HTU21D;9913;51.168;4.124;2023-02-08T01:33:09;-2.08;75.50
19536;HTU21D;9913;51.168;4.124;2023-02-08T01:35:37;-2.12;75.42
19536;HTU21D;9913;51.168;4.124;2023-02-08T01:38:05;-2.10;75.36
19536;HTU21D;9913;51.168;4.124;2023-02-08T01:40:34;-2.14;75.40
19536;HTU21D;9913;51.168;4.124;2023-02-08T01:43:05;-2.15;75.41
19536;HTU21D;9913;51.168;4.124;2023-02-08T01:45:38;-2.20;75.57
19536;HTU21D;9913;51.168;4.124;2023-02-08T01:48:10;-2.24;75.67
19536;HTU21D;9913;51.168;4.124;2023-02-08T01:50:43;-2.18;75.73
19536;HTU21D;9913;51.168;4.124;2023-02-08T01:53:14;-2.21;75.64
19536;HTU21D;9913;51.168;4.124;2023-02-08T01:55:47;-2.21;75.61
19536;HTU21D;9913;51.168;4.124;2023-02-08T01:58:17;-2.21;75.62
19536;HTU21D;9913;51.168;4.124;2023-02-08T02:00:47;-2.17;75.70
19536;HTU21D;9913;51.168;4.124;2023-02-08T02:03:16;-2.18;75.84
19536;HTU21D;9913;51.168;4.124;2023-02-08T02:05:48;-2.20;75.70
19536;HTU21D;9913;51.168;4.124;2023-02-08T02:08:17;-2.18;75.60
19536;HTU21D;9913;51.168;4.124;2023-02-08T02:10:48;-2.18;75.47
19536;HTU21D;9913;51.168;4.124;2023-02-08T02:13:18;-2.21;75.42
19536;HTU21D;9913;51.168;4.124;2023-02-08T02:15:48;-2.27;75.34
19536;HTU21D;9913;51.168;4.124;2023-02-08T02:18:20;-2.33;75.34
19536;HTU21D;9913;51.168;4.124;2023-02-08T02:21:12;-2.27;75.34
19536;HTU21D;9913;51.168;4.124;2023-02-08T02:24:10;-2.23;75.48
19536;HTU21D;9913;51.168;4.124;2023-02-08T02:26:57;-2.19;75.45
19536;HTU21D;9913;51.168;4.124;2023-02-08T02:29:45;-2.22;75.37
19536;HTU21D;9913;51.168;4.124;2023-02-08T02:32:34;-2.21;75.25
19536;HTU21D;9913;51.168;4.124;2023-02-08T02:35:11;-2.22;75.36
19536;HTU21D;9913;51.168;4.124;2023-02-08T02:37:47;-2.17;75.50
19536;HTU21D;9913;51.168;4.124;2023-02-08T02:40:24;-2.20;75.36
19536;HTU21D;9913;51.168;4.124;2023-02-08T02:43:04;-2.07;75.32
19536;HTU21D;9913;51.168;4.124;2023-02-08T02:45:59;-1.88;75.34
19536;HTU21D;9913;51.168;4.124;2023-02-08T02:48:38;-1.74;75.00
19536;HTU21D;9913;51.168;4.124;2023-02-08T02:51:12;-1.61;74.82
19536;HTU21D;9913;51.168;4.124;2023-02-08T02:53:46;-1.57;74.51
19536;HTU21D;9913;51.168;4.124;2023-02-08T02:56:18;-1.60;74.42
19536;HTU21D;9913;51.168;4.124;2023-02-08T02:58:49;-1.68;74.46
19536;HTU21D;9913;51.168;4.124;2023-02-08T03:01:21;-1.68;74.52
19536;HTU21D;9913;51.168;4.124;2023-02-08T03:03:53;-1.67;74.51
19536;HTU21D;9913;51.168;4.124;2023-02-08T03:06:32;-1.70;74.38
19536;HTU21D;9913;51.168;4.124;2023-02-08T03:12:11;-1.74;74.44
19536;HTU21D;9913;51.168;4.124;2023-02-08T03:14:50;-1.75;74.47
19536;HTU21D;9913;51.168;4.124;2023-02-08T03:17:32;-1.86;74.59
19536;HTU21D;9913;51.168;4.124;2023-02-08T03:20:07;-1.95;74.64
19536;HTU21D;9913;51.168;4.124;2023-02-08T03:22:44;-2.00;74.71
19536;HTU21D;9913;51.168;4.124;2023-02-08T03:25:21;-2.04;74.92
19536;HTU21D;9913;51.168;4.124;2023-02-08T03:27:56;-2.07;74.96
19536;HTU21D;9913;51.168;4.124;2023-02-08T03:30:31;-2.15;74.94
19536;HTU21D;9913;51.168;4.124;2023-02-08T03:33:07;-2.16;75.06
19536;HTU21D;9913;51.168;4.124;2023-02-08T03:35:43;-2.19;74.99
19536;HTU21D;9913;51.168;4.124;2023-02-08T03:38:18;-2.22;75.02
19536;HTU21D;9913;51.168;4.124;2023-02-08T03:40:51;-2.23;75.15
19536;HTU21D;9913;51.168;4.124;2023-02-08T03:43:24;-2.23;75.20
19536;HTU21D;9913;51.168;4.124;2023-02-08T03:46:00;-2.20;75.17
19536;HTU21D;9913;51.168;4.124;2023-02-08T03:48:30;-2.27;75.12
19536;HTU21D;9913;51.168;4.124;2023-02-08T03:51:02;-2.32;75.08
19536;HTU21D;9913;51.168;4.124;2023-02-08T03:53:32;-2.36;75.14
19536;HTU21D;9913;51.168;4.124;2023-02-08T03:56:08;-2.36;75.23
19536;HTU21D;9913;51.168;4.124;2023-02-08T03:58:40;-2.38;75.30
19536;HTU21D;9913;51.168;4.124;2023-02-08T04:01:14;-2.42;75.24
19536;HTU21D;9913;51.168;4.124;2023-02-08T04:03:44;-2.47;75.33
19536;HTU21D;9913;51.168;4.124;2023-02-08T04:06:16;-2.48;75.41
19536;HTU21D;9913;51.168;4.124;2023-02-08T04:08:44;-2.45;75.48
19536;HTU21D;9913;51.168;4.124;2023-02-08T04:11:13;-2.48;75.63
19536;HTU21D;9913;51.168;4.124;2023-02-08T04:13:43;-2.50;75.43
19536;HTU21D;9913;51.168;4.124;2023-02-08T04:16:12;-2.51;75.43
19536;HTU21D;9913;51.168;4.124;2023-02-08T04:18:40;-2.54;75.44
19536;HTU21D;9913;51.168;4.124;2023-02-08T04:21:08;-2.54;75.41
19536;HTU21D;9913;51.168;4.124;2023-02-08T04:23:38;-2.57;75.38
19536;HTU21D;9913;51.168;4.124;2023-02-08T04:26:06;-2.58;75.35
19536;HTU21D;9913;51.168;4.124;2023-02-08T04:28:36;-2.63;75.34
19536;HTU21D;9913;51.168;4.124;2023-02-08T04:31:04;-2.73;75.52
19536;HTU21D;9913;51.168;4.124;2023-02-08T04:33:32;-2.77;75.69
19536;HTU21D;9913;51.168;4.124;2023-02-08T04:36:01;-2.77;75.61
19536;HTU21D;9913;51.168;4.124;2023-02-08T04:38:29;-2.74;75.60
19536;HTU21D;9913;51.168;4.124;2023-02-08T04:40:58;-2.71;75.65
19536;HTU21D;9913;51.168;4.124;2023-02-08T04:43:27;-2.69;75.67
19536;HTU21D;9913;51.168;4.124;2023-02-08T04:45:55;-2.69;75.59
19536;HTU21D;9913;51.168;4.124;2023-02-08T04:48:24;-2.62;75.65
19536;HTU21D;9913;51.168;4.124;2023-02-08T04:50:54;-2.65;75.94
19536;HTU21D;9913;51.168;4.124;2023-02-08T04:53:22;-2.68;75.75
19536;HTU21D;9913;51.168;4.124;2023-02-08T04:55:51;-2.68;75.54
19536;HTU21D;9913;51.168;4.124;2023-02-08T04:58:21;-2.74;75.54
19536;HTU21D;9913;51.168;4.124;2023-02-08T05:00:49;-2.74;75.58
19536;HTU21D;9913;51.168;4.124;2023-02-08T05:03:18;-2.78;75.69
19536;HTU21D;9913;51.168;4.124;2023-02-08T05:05:55;-2.76;75.57
19536;HTU21D;9913;51.168;4.124;2023-02-08T05:08:24;-2.73;75.63
19536;HTU21D;9913;51.168;4.124;2023-02-08T05:10:53;-2.75;75.75
19536;HTU21D;9913;51.168;4.124;2023-02-08T05:13:22;-2.72;75.70
19536;HTU21D;9913;51.168;4.124;2023-02-08T05:15:50;-2.62;75.84
19536;HTU21D;9913;51.168;4.124;2023-02-08T05:18:19;-2.51;75.78
19536;HTU21D;9913;51.168;4.124;2023-02-08T05:20:53;-2.47;75.64
19536;HTU21D;9913;51.168;4.124;2023-02-08T05:23:22;-2.43;75.63
19536;HTU21D;9913;51.168;4.124;2023-02-08T05:25:50;-2.46;75.58
19536;HTU21D;9913;51.168;4.124;2023-02-08T05:28:18;-2.51;75.62
19536;HTU21D;9913;51.168;4.124;2023-02-08T05:30:48;-2.52;75.63
19536;HTU21D;9913;51.168;4.124;2023-02-08T05:33:17;-2.61;75.57
19536;HTU21D;9913;51.168;4.124;2023-02-08T05:35:45;-2.59;75.60
19536;HTU21D;9913;51.168;4.124;2023-02-08T05:38:13;-2.68;75.55
19536;HTU21D;9913;51.168;4.124;2023-02-08T05:40:42;-2.66;75.64
19536;HTU21D;9913;51.168;4.124;2023-02-08T05:43:10;-2.74;75.69
19536;HTU21D;9913;51.168;4.124;2023-02-08T05:45:38;-2.77;75.78
19536;HTU21D;9913;51.168;4.124;2023-02-08T05:48:08;-2.75;75.77
19536;HTU21D;9913;51.168;4.124;2023-02-08T05:50:36;-2.75;75.82
19536;HTU21D;9913;51.168;4.124;2023-02-08T05:53:08;-2.75;75.72
19536;HTU21D;9913;51.168;4.124;2023-02-08T05:55:37;-2.78;75.88
19536;HTU21D;9913;51.168;4.124;2023-02-08T05:58:05;-2.76;75.87
19536;HTU21D;9913;51.168;4.124;2023-02-08T06:00:33;-2.75;75.84
19536;HTU21D;9913;51.168;4.124;2023-02-08T06:03:02;-2.81;75.86
19536;HTU21D;9913;51.168;4.124;2023-02-08T06:05:31;-2.81;75.95
19536;HTU21D;9913;51.168;4.124;2023-02-08T06:08:00;-2.73;75.96
19536;HTU21D;9913;51.168;4.124;2023-02-08T06:10:28;-2.64;76.02
19536;HTU21D;9913;51.168;4.124;2023-02-08T06:12:57;-2.60;75.90
19536;HTU21D;9913;51.168;4.124;2023-02-08T06:15:25;-2.65;75.98
19536;HTU21D;9913;51.168;4.124;2023-02-08T06:17:53;-2.72;75.84
19536;HTU21D;9913;51.168;4.124;2023-02-08T06:20:22;-2.73;75.86
19536;HTU21D;9913;51.168;4.124;2023-02-08T06:22:52;-2.69;75.89
19536;HTU21D;9913;51.168;4.124;2023-02-08T06:25:20;-2.67;76.04
19536;HTU21D;9913;51.168;4.124;2023-02-08T06:27:48;-2.59;76.12
19536;HTU21D;9913;51.168;4.124;2023-02-08T06:30:16;-2.59;76.08
19536;HTU21D;9913;51.168;4.124;2023-02-08T06:32:45;-2.54;76.12
19536;HTU21D;9913;51.168;4.124;2023-02-08T06:35:13;-2.51;75.92
19536;HTU21D;9913;51.168;4.124;2023-02-08T06:37:41;-2.50;76.00
19536;HTU21D;9913;51.168;4.124;2023-02-08T06:40:11;-2.52;76.05
19536;HTU21D;9913;51.168;4.124;2023-02-08T06:42:39;-2.50;76.05
19536;HTU21D;9913;51.168;4.124;2023-02-08T06:45:08;-2.50;75.96
19536;HTU21D;9913;51.168;4.124;2023-02-08T06:47:39;-2.48;76.00
19536;HTU21D;9913;51.168;4.124;2023-02-08T06:50:08;-2.48;75.91
19536;HTU21D;9913;51.168;4.124;2023-02-08T06:52:37;-2.54;75.87
19536;HTU21D;9913;51.168;4.124;2023-02-08T06:55:06;-2.57;75.85
19536;HTU21D;9913;51.168;4.124;2023-02-08T06:57:35;-2.62;75.91
19536;HTU21D;9913;51.168;4.124;2023-02-08T07:00:05;-2.64;76.05
19536;HTU21D;9913;51.168;4.124;2023-02-08T07:02:33;-2.64;76.02
19536;HTU21D;9913;51.168;4.124;2023-02-08T07:05:01;-2.65;75.90
19536;HTU21D;9913;51.168;4.124;2023-02-08T07:07:30;-2.71;75.85
19536;HTU21D;9913;51.168;4.124;2023-02-08T07:09:58;-2.72;75.86
19536;HTU21D;9913;51.168;4.124;2023-02-08T07:12:26;-2.68;75.80
19536;HTU21D;9913;51.168;4.124;2023-02-08T07:14:56;-2.71;75.95
19536;HTU21D;9913;51.168;4.124;2023-02-08T07:17:24;-2.64;76.12
19536;HTU21D;9913;51.168;4.124;2023-02-08T07:19:52;-2.58;76.13
19536;HTU21D;9913;51.168;4.124;2023-02-08T07:22:21;-2.47;76.07
19536;HTU21D;9913;51.168;4.124;2023-02-08T07:24:49;-2.42;75.95
19536;HTU21D;9913;51.168;4.124;2023-02-08T07:27:17;-2.44;75.85
19536;HTU21D;9913;51.168;4.124;2023-02-08T07:29:46;-2.35;75.83
19536;HTU21D;9913;51.168;4.124;2023-02-08T07:32:15;-2.31;75.80
19536;HTU21D;9913;51.168;4.124;2023-02-08T07:34:43;-2.32;75.69
19536;HTU21D;9913;51.168;4.124;2023-02-08T07:37:12;-2.27;75.72
19536;HTU21D;9913;51.168;4.124;2023-02-08T07:39:41;-2.20;75.63
19536;HTU21D;9913;51.168;4.124;2023-02-08T07:42:09;-2.21;75.49
19536;HTU21D;9913;51.168;4.124;2023-02-08T07:44:51;-2.12;75.43
19536;HTU21D;9913;51.168;4.124;2023-02-08T07:47:20;-2.10;75.44
19536;HTU21D;9913;51.168;4.124;2023-02-08T07:49:48;-2.06;75.36
19536;HTU21D;9913;51.168;4.124;2023-02-08T07:52:17;-2.00;75.23
19536;HTU21D;9913;51.168;4.124;2023-02-08T07:54:45;-1.93;75.14
19536;HTU21D;9913;51.168;4.124;2023-02-08T07:57:13;-1.88;75.08
19536;HTU21D;9913;51.168;4.124;2023-02-08T07:59:47;-1.84;75.08
19536;HTU21D;9913;51.168;4.124;2023-02-08T08:02:15;-1.78;74.97
19536;HTU21D;9913;51.168;4.124;2023-02-08T08:04:45;-1.74;74.91
19536;HTU21D;9913;51.168;4.124;2023-02-08T08:07:14;-1.60;74.82
19536;HTU21D;9913;51.168;4.124;2023-02-08T08:09:42;-1.50;74.68
19536;HTU21D;9913;51.168;4.124;2023-02-08T08:12:10;-1.42;74.57
19536;HTU21D;9913;51.168;4.124;2023-02-08T08:14:38;-1.33;74.37
19536;HTU21D;9913;51.168;4.124;2023-02-08T08:17:07;-1.21;74.28
19536;HTU21D;9913;51.168;4.124;2023-02-08T08:19:36;-1.15;74.04
19536;HTU21D;9913;51.168;4.124;2023-02-08T08:22:05;-1.14;74.09
19536;HTU21D;9913;51.168;4.124;2023-02-08T08:24:34;-1.09;74.02
19536;HTU21D;9913;51.168;4.124;2023-02-08T08:27:03;-0.98;74.04
19536;HTU21D;9913;51.168;4.124;2023-02-08T08:29:31;-0.89;73.96
19536;HTU21D;9913;51.168;4.124;2023-02-08T08:32:00;-0.85;73.82
19536;HTU21D;9913;51.168;4.124;2023-02-08T08:34:28;-0.82;73.86
19536;HTU21D;9913;51.168;4.124;2023-02-08T08:36:57;-0.70;73.73
19536;HTU21D;9913;51.168;4.124;2023-02-08T08:39:27;-0.61;73.87
19536;HTU21D;9913;51.168;4.124;2023-02-08T08:41:56;-0.55;73.80
19536;HTU21D;9913;51.168;4.124;2023-02-08T08:44:25;-0.49;73.75
19536;HTU21D;9913;51.168;4.124;2023-02-08T08:46:53;-0.43;73.70
19536;HTU21D;9913;51.168;4.124;2023-02-08T08:49:22;-0.30;73.76
19536;HTU21D;9913;51.168;4.124;2023-02-08T08:51:51;-0.28;73.69
19536;HTU21D;9913;51.168;4.124;2023-02-08T08:54:20;-0.15;73.58
19536;HTU21D;9913;51.168;4.124;2023-02-08T08:56:49;0.02;73.55
19536;HTU21D;9913;51.168;4.124;2023-02-08T08:59:17;0.13;73.84
19536;HTU21D;9913;51.168;4.124;2023-02-08T09:01:46;0.21;73.94
19536;HTU21D;9913;51.168;4.124;2023-02-08T09:04:14;0.31;73.90
19536;HTU21D;9913;51.168;4.124;2023-02-08T09:06:42;0.36;74.24
19536;HTU21D;9913;51.168;4.124;2023-02-08T09:09:11;0.48;74.22
19536;HTU21D;9913;51.168;4.124;2023-02-08T09:11:39;0.61;74.19
19536;HTU21D;9913;51.168;4.124;2023-02-08T09:14:09;0.65;74.89
19536;HTU21D;9913;51.168;4.124;2023-02-08T09:16:39;0.76;75.00
19536;HTU21D;9913;51.168;4.124;2023-02-08T09:19:09;0.83;75.68
19536;HTU21D;9913;51.168;4.124;2023-02-08T09:21:38;0.87;75.44
19536;HTU21D;9913;51.168;4.124;2023-02-08T09:24:07;0.97;75.20
19536;HTU21D;9913;51.168;4.124;2023-02-08T09:26:37;1.08;75.44
19536;HTU21D;9913;51.168;4.124;2023-02-08T09:29:05;1.26;74.14
19536;HTU21D;9913;51.168;4.124;2023-02-08T09:31:36;1.32;74.63
19536;HTU21D;9913;51.168;4.124;2023-02-08T09:34:08;1.32;75.95
19536;HTU21D;9913;51.168;4.124;2023-02-08T09:36:38;1.51;75.61
19536;HTU21D;9913;51.168;4.124;2023-02-08T09:39:09;1.58;76.00
19536;HTU21D;9913;51.168;4.124;2023-02-08T09:42:05;1.70;77.47
19536;HTU21D;9913;51.168;4.124;2023-02-08T09:44:47;1.85;75.61
19536;HTU21D;9913;51.168;4.124;2023-02-08T09:47:21;1.98;75.75
19536;HTU21D;9913;51.168;4.124;2023-02-08T09:49:56;2.19;77.33
19536;HTU21D;9913;51.168;4.124;2023-02-08T09:52:29;2.24;75.36
19536;HTU21D;9913;51.168;4.124;2023-02-08T09:55:03;2.36;76.77
19536;HTU21D;9913;51.168;4.124;2023-02-08T09:57:38;2.51;76.71
19536;HTU21D;9913;51.168;4.124;2023-02-08T10:00:13;2.56;75.94
19536;HTU21D;9913;51.168;4.124;2023-02-08T10:02:46;2.67;76.66
19536;HTU21D;9913;51.168;4.124;2023-02-08T10:05:20;2.86;77.31
19536;HTU21D;9913;51.168;4.124;2023-02-08T10:07:49;2.88;75.35
19536;HTU21D;9913;51.168;4.124;2023-02-08T10:10:23;2.97;76.05
19536;HTU21D;9913;51.168;4.124;2023-02-08T10:13:01;2.96;75.92
19536;HTU21D;9913;51.168;4.124;2023-02-08T10:15:40;3.13;77.44
19536;HTU21D;9913;51.168;4.124;2023-02-08T10:18:24;3.35;77.48
19536;HTU21D;9913;51.168;4.124;2023-02-08T10:21:12;3.49;77.18
19536;HTU21D;9913;51.168;4.124;2023-02-08T10:23:55;3.56;75.12
19536;HTU21D;9913;51.168;4.124;2023-02-08T10:26:30;3.73;74.42
19536;HTU21D;9913;51.168;4.124;2023-02-08T10:29:12;3.79;74.76
19536;HTU21D;9913;51.168;4.124;2023-02-08T10:32:05;4.01;74.52
19536;HTU21D;9913;51.168;4.124;2023-02-08T10:34:43;4.19;73.90
19536;HTU21D;9913;51.168;4.124;2023-02-08T10:37:14;4.26;73.71
19536;HTU21D;9913;51.168;4.124;2023-02-08T10:39:43;4.33;74.68
19536;HTU21D;9913;51.168;4.124;2023-02-08T10:42:14;4.58;72.48
19536;HTU21D;9913;51.168;4.124;2023-02-08T10:44:52;4.76;74.33
19536;HTU21D;9913;51.168;4.124;2023-02-08T10:47:34;4.76;73.39
19536;HTU21D;9913;51.168;4.124;2023-02-08T10:50:08;4.86;93.73
19536;HTU21D;9913;51.168;4.124;2023-02-08T10:52:39;4.75;96.13
19536;HTU21D;9913;51.168;4.124;2023-02-08T10:55:12;4.87;94.25
19536;HTU21D;9913;51.168;4.124;2023-02-08T10:57:42;5.06;95.13
19536;HTU21D;9913;51.168;4.124;2023-02-08T11:00:17;5.21;95.35
19536;HTU21D;9913;51.168;4.124;2023-02-08T11:02:46;5.38;96.53
19536;HTU21D;9913;51.168;4.124;2023-02-08T11:05:20;5.62;96.07
19536;HTU21D;9913;51.168;4.124;2023-02-08T11:08:04;5.70;95.78
19536;HTU21D;9913;51.168;4.124;2023-02-08T11:10:33;5.75;97.44
19536;HTU21D;9913;51.168;4.124;2023-02-08T11:13:05;5.48;95.05
19536;HTU21D;9913;51.168;4.124;2023-02-08T11:15:38;5.67;99.80
19536;HTU21D;9913;51.168;4.124;2023-02-08T11:18:16;5.72;97.20
19536;HTU21D;9913;51.168;4.124;2023-02-08T11:20:50;5.90;97.65
19536;HTU21D;9913;51.168;4.124;2023-02-08T11:23:21;6.05;98.02
19536;HTU21D;9913;51.168;4.124;2023-02-08T11:25:51;6.06;96.64
19536;HTU21D;9913;51.168;4.124;2023-02-08T11:28:26;5.95;95.72
19536;HTU21D;9913;51.168;4.124;2023-02-08T11:30:57;6.07;97.02
19536;HTU21D;9913;51.168;4.124;2023-02-08T11:33:27;6.11;95.86
19536;HTU21D;9913;51.168;4.124;2023-02-08T11:36:00;6.29;93.70
19536;HTU21D;9913;51.168;4.124;2023-02-08T11:38:31;6.22;91.79
19536;HTU21D;9913;51.168;4.124;2023-02-08T11:41:02;6.38;90.28
19536;HTU21D;9913;51.168;4.124;2023-02-08T11:43:32;6.59;91.05
19536;HTU21D;9913;51.168;4.124;2023-02-08T11:46:03;6.55;89.76
19536;HTU21D;9913;51.168;4.124;2023-02-08T11:48:38;6.63;91.11
19536;HTU21D;9913;51.168;4.124;2023-02-08T11:51:12;6.59;90.58
19536;HTU21D;9913;51.168;4.124;2023-02-08T11:53:46;6.65;86.09
19536;HTU21D;9913;51.168;4.124;2023-02-08T11:56:17;6.71;87.01
19536;HTU21D;9913;51.168;4.124;2023-02-08T11:58:57;6.84;85.98
19536;HTU21D;9913;51.168;4.124;2023-02-08T12:01:27;6.91;87.61
19536;HTU21D;9913;51.168;4.124;2023-02-08T12:03:58;6.97;87.46
19536;HTU21D;9913;51.168;4.124;2023-02-08T12:07:10;6.99;87.41
19536;HTU21D;9913;51.168;4.124;2023-02-08T12:12:56;6.84;85.69
19536;HTU21D;9913;51.168;4.124;2023-02-08T12:15:33;6.88;84.65
19536;HTU21D;9913;51.168;4.124;2023-02-08T12:18:39;6.87;83.49
19536;HTU21D;9913;51.168;4.124;2023-02-08T12:21:15;7.13;84.11
19536;HTU21D;9913;51.168;4.124;2023-02-08T12:23:51;7.00;81.07
19536;HTU21D;9913;51.168;4.124;2023-02-08T12:26:49;7.05;82.65
19536;HTU21D;9913;51.168;4.124;2023-02-08T12:29:28;7.08;82.31
19536;HTU21D;9913;51.168;4.124;2023-02-08T12:32:33;7.16;82.71
19536;HTU21D;9913;51.168;4.124;2023-02-08T12:35:46;7.19;81.57
19536;HTU21D;9913;51.168;4.124;2023-02-08T12:38:40;7.28;80.36
19536;HTU21D;9913;51.168;4.124;2023-02-08T12:41:49;7.27;81.39
19536;HTU21D;9913;51.168;4.124;2023-02-08T12:44:37;7.34;81.51
19536;HTU21D;9913;51.168;4.124;2023-02-08T12:47:20;7.33;80.58
19536;HTU21D;9913;51.168;4.124;2023-02-08T12:50:02;7.25;82.63
19536;HTU21D;9913;51.168;4.124;2023-02-08T12:52:37;7.41;82.51
19536;HTU21D;9913;51.168;4.124;2023-02-08T12:55:15;7.44;81.99
19536;HTU21D;9913;51.168;4.124;2023-02-08T12:57:49;7.38;82.36
19536;HTU21D;9913;51.168;4.124;2023-02-08T13:00:22;7.35;81.93
19536;HTU21D;9913;51.168;4.124;2023-02-08T13:02:57;7.34;83.74
19536;HTU21D;9913;51.168;4.124;2023-02-08T13:05:30;7.50;82.13
19536;HTU21D;9913;51.168;4.124;2023-02-08T13:08:05;7.68;81.88
19536;HTU21D;9913;51.168;4.124;2023-02-08T13:10:39;7.64;81.68
19536;HTU21D;9913;51.168;4.124;2023-02-08T13:13:15;7.76;84.06
19536;HTU21D;9913;51.168;4.124;2023-02-08T13:15:50;7.60;81.88
19536;HTU21D;9913;51.168;4.124;2023-02-08T13:18:23;7.67;81.88
19536;HTU21D;9913;51.168;4.124;2023-02-08T13:20:55;7.57;80.94
19536;HTU21D;9913;51.168;4.124;2023-02-08T13:23:27;7.58;81.65
19536;HTU21D;9913;51.168;4.124;2023-02-08T13:26:03;7.73;83.05
19536;HTU21D;9913;51.168;4.124;2023-02-08T13:28:34;7.67;79.94
19536;HTU21D;9913;51.168;4.124;2023-02-08T13:31:06;7.69;81.89
19536;HTU21D;9913;51.168;4.124;2023-02-08T13:33:40;7.65;81.16
19536;HTU21D;9913;51.168;4.124;2023-02-08T13:36:28;7.58;82.22
19536;HTU21D;9913;51.168;4.124;2023-02-08T13:38:58;7.69;83.31
19536;HTU21D;9913;51.168;4.124;2023-02-08T13:41:29;7.65;82.09
19536;HTU21D;9913;51.168;4.124;2023-02-08T13:44:02;7.69;80.40
19536;HTU21D;9913;51.168;4.124;2023-02-08T13:46:36;7.57;77.36
19536;HTU21D;9913;51.168;4.124;2023-02-08T13:49:06;7.74;81.75
19536;HTU21D;9913;51.168;4.124;2023-02-08T13:51:52;7.81;79.05
19536;HTU21D;9913;51.168;4.124;2023-02-08T13:54:21;7.77;80.04
19536;HTU21D;9913;51.168;4.124;2023-02-08T13:56:51;7.89;79.62
19536;HTU21D;9913;51.168;4.124;2023-02-08T13:59:30;7.91;77.79
19536;HTU21D;9913;51.168;4.124;2023-02-08T14:02:27;7.77;75.71
19536;HTU21D;9913;51.168;4.124;2023-02-08T14:08:15;7.84;76.52
19536;HTU21D;9913;51.168;4.124;2023-02-08T14:10:59;7.73;74.17
19536;HTU21D;9913;51.168;4.124;2023-02-08T14:13:31;7.75;73.85
19536;HTU21D;9913;51.168;4.124;2023-02-08T14:16:26;7.75;75.07
19536;HTU21D;9913;51.168;4.124;2023-02-08T14:18:57;7.79;75.14
19536;HTU21D;9913;51.168;4.124;2023-02-08T14:21:33;7.53;76.79
19536;HTU21D;9913;51.168;4.124;2023-02-08T14:24:06;7.54;78.01
19536;HTU21D;9913;51.168;4.124;2023-02-08T14:26:35;7.57;75.63
19536;HTU21D;9913;51.168;4.124;2023-02-08T14:29:05;7.61;74.83
19536;HTU21D;9913;51.168;4.124;2023-02-08T14:31:37;7.55;74.79
19536;HTU21D;9913;51.168;4.124;2023-02-08T14:34:20;7.63;73.70
19536;HTU21D;9913;51.168;4.124;2023-02-08T14:36:59;7.55;74.47
19536;HTU21D;9913;51.168;4.124;2023-02-08T14:39:29;7.58;74.41
19536;HTU21D;9913;51.168;4.124;2023-02-08T14:41:59;7.52;74.54
19536;HTU21D;9913;51.168;4.124;2023-02-08T14:44:44;7.50;72.37
19536;HTU21D;9913;51.168;4.124;2023-02-08T14:50:32;7.53;72.27
19536;HTU21D;9913;51.168;4.124;2023-02-08T14:53:05;7.42;71.86
19536;HTU21D;9913;51.168;4.124;2023-02-08T14:55:47;7.41;71.48
19536;HTU21D;9913;51.168;4.124;2023-02-08T14:58:25;7.32;72.56
19536;HTU21D;9913;51.168;4.124;2023-02-08T15:00:56;7.23;73.27
19536;HTU21D;9913;51.168;4.124;2023-02-08T15:03:30;7.22;72.35
19536;HTU21D;9913;51.168;4.124;2023-02-08T15:06:33;7.16;71.56
19536;HTU21D;9913;51.168;4.124;2023-02-08T15:09:04;7.07;71.11
19536;HTU21D;9913;51.168;4.124;2023-02-08T15:11:34;6.99;71.97
19536;HTU21D;9913;51.168;4.124;2023-02-08T15:14:03;7.01;71.42
19536;HTU21D;9913;51.168;4.124;2023-02-08T15:16:34;7.02;70.90
19536;HTU21D;9913;51.168;4.124;2023-02-08T15:19:06;6.88;71.19
19536;HTU21D;9913;51.168;4.124;2023-02-08T15:21:35;6.84;72.13
19536;HTU21D;9913;51.168;4.124;2023-02-08T15:24:12;6.82;73.04
19536;HTU21D;9913;51.168;4.124;2023-02-08T15:26:48;6.84;72.19
19536;HTU21D;9913;51.168;4.124;2023-02-08T15:29:19;6.84;71.82
19536;HTU21D;9913;51.168;4.124;2023-02-08T15:31:52;6.73;71.95
19536;HTU21D;9913;51.168;4.124;2023-02-08T15:34:23;6.67;72.68
19536;HTU21D;9913;51.168;4.124;2023-02-08T15:36:54;6.68;72.52
19536;HTU21D;9913;51.168;4.124;2023-02-08T15:39:29;6.68;71.91
19536;HTU21D;9913;51.168;4.124;2023-02-08T15:42:00;6.75;72.23
19536;HTU21D;9913;51.168;4.124;2023-02-08T15:44:30;6.59;73.36
19536;HTU21D;9913;51.168;4.124;2023-02-08T15:47:01;6.59;73.72
19536;HTU21D;9913;51.168;4.124;2023-02-08T15:49:34;6.54;74.37
19536;HTU21D;9913;51.168;4.124;2023-02-08T15:52:05;6.49;73.96
19536;HTU21D;9913;51.168;4.124;2023-02-08T15:54:34;6.48;75.31
19536;HTU21D;9913;51.168;4.124;2023-02-08T15:57:05;6.49;74.02
19536;HTU21D;9913;51.168;4.124;2023-02-08T15:59:38;6.53;73.17
19536;HTU21D;9913;51.168;4.124;2023-02-08T16:02:23;6.43;73.63
19536;HTU21D;9913;51.168;4.124;2023-02-08T16:04:55;6.40;73.93
19536;HTU21D;9913;51.168;4.124;2023-02-08T16:07:27;6.37;73.50
19536;HTU21D;9913;51.168;4.124;2023-02-08T16:09:56;6.39;73.91
19536;HTU21D;9913;51.168;4.124;2023-02-08T16:12:26;6.34;74.12
19536;HTU21D;9913;51.168;4.124;2023-02-08T16:14:55;6.16;74.38
19536;HTU21D;9913;51.168;4.124;2023-02-08T16:17:40;6.11;75.04
19536;HTU21D;9913;51.168;4.124;2023-02-08T16:20:27;6.10;75.69
19536;HTU21D;9913;51.168;4.124;2023-02-08T16:23:00;5.92;75.79
19536;HTU21D;9913;51.168;4.124;2023-02-08T16:25:35;5.81;76.81